X  Zatvori METAR podaci zračne luke     LDPL Pula Airport
Temperatura
11°C Temperatura
9°C Točka rosišta
88% Vlaga



Vjetar
16 KM/S
10 MPS
4 M/S
9 Čvorovi



100°
Istok
Trenutna situacija

Slaba Kiša Slaba Kiša
Tlak zraka 1019.92 (hPa) - 30.12 (inHg)
Vidljivost 6.2 (milje) - 10 (km)
Zračna luka
Kôd zračne luke LDPL

Lokacija: Pula Airport
Udaljenost: 39 (km)

Metar:
LDPL 111000Z 10009KT 9999 -RA FEW012 SCT020 BKN050 11/09 Q1020 TEMPO BKN010

Vrijeme: 11-04-2021 12:00 CEST